createdAt,value
2023-01-21T00:01:09.703Z,17.48
2023-01-21T00:03:36.300Z,17.73
2023-01-21T00:06:04.251Z,18.10
2023-01-21T00:08:30.687Z,18.13
2023-01-21T00:10:57.110Z,18.15
2023-01-21T00:13:23.671Z,18.38
2023-01-21T00:15:50.349Z,18.27
2023-01-21T00:18:16.826Z,17.58
2023-01-21T00:20:48.633Z,18.40
2023-01-21T00:23:15.093Z,17.23
2023-01-21T00:25:42.013Z,18.35
2023-01-21T00:28:08.495Z,17.63
2023-01-21T00:30:36.856Z,19.65
2023-01-21T00:33:07.735Z,19.30
2023-01-21T00:35:34.267Z,21.52
2023-01-21T00:38:00.686Z,20.52
2023-01-21T00:40:27.249Z,18.40
2023-01-21T00:42:53.691Z,18.58
2023-01-21T00:45:20.218Z,18.23
2023-01-21T00:47:58.195Z,19.40
2023-01-21T00:50:24.666Z,18.40
2023-01-21T00:52:51.098Z,18.00
2023-01-21T00:55:17.593Z,19.42
2023-01-21T00:57:44.030Z,18.35
2023-01-21T01:00:13.050Z,16.98
2023-01-21T01:02:39.539Z,18.95
2023-01-21T01:05:08.328Z,18.95
2023-01-21T01:07:35.221Z,19.02
2023-01-21T01:10:01.642Z,18.23
2023-01-21T01:12:28.814Z,19.58
2023-01-21T01:15:05.407Z,19.70
2023-01-21T01:17:31.977Z,20.52
2023-01-21T01:19:58.453Z,20.48
2023-01-21T01:22:24.988Z,21.98
2023-01-21T01:24:51.431Z,21.30
2023-01-21T01:27:17.859Z,20.77
2023-01-21T01:29:44.306Z,21.38
2023-01-21T01:32:10.782Z,21.58
2023-01-21T01:34:37.193Z,20.40
2023-01-21T01:37:04.203Z,20.00
2023-01-21T01:39:31.447Z,21.05
2023-01-21T01:42:04.488Z,20.05
2023-01-21T01:44:55.869Z,21.73
2023-01-21T01:47:27.820Z,20.40
2023-01-21T01:49:55.247Z,20.63
2023-01-21T01:52:22.908Z,20.25
2023-01-21T01:54:54.719Z,20.73
2023-01-21T01:57:29.584Z,20.92
2023-01-21T01:59:57.064Z,21.02
2023-01-21T02:02:23.510Z,21.15
2023-01-21T02:05:00.291Z,21.95
2023-01-21T02:07:29.180Z,19.88
2023-01-21T02:09:56.441Z,20.02
2023-01-21T02:12:23.243Z,20.25
2023-01-21T02:14:50.573Z,19.98
2023-01-21T02:18:00.180Z,20.77
2023-01-21T02:20:48.198Z,19.88
2023-01-21T02:23:40.178Z,20.02
2023-01-21T02:26:12.554Z,18.30
2023-01-21T02:29:10.775Z,18.20
2023-01-21T02:32:08.696Z,19.35
2023-01-21T02:35:02.865Z,18.65
2023-01-21T02:37:40.825Z,19.35
2023-01-21T02:40:13.518Z,19.02
2023-01-21T02:43:08.488Z,18.85
2023-01-21T02:45:53.410Z,18.05
2023-01-21T02:48:47.731Z,18.48
2023-01-21T02:51:21.946Z,18.67
2023-01-21T02:53:48.437Z,19.67
2023-01-21T02:56:21.861Z,19.50
2023-01-21T02:58:54.950Z,21.00
2023-01-21T03:01:55.652Z,20.17
2023-01-21T03:04:33.273Z,18.38
2023-01-21T03:07:13.027Z,18.42
2023-01-21T03:09:40.168Z,18.30
2023-01-21T03:12:25.595Z,17.77
2023-01-21T03:15:27.908Z,16.80
2023-01-21T03:18:31.284Z,18.48
2023-01-21T03:21:07.274Z,17.53
2023-01-21T03:23:39.015Z,16.77
2023-01-21T03:26:07.675Z,17.65
2023-01-21T03:28:39.717Z,16.50
2023-01-21T03:31:11.695Z,15.80
2023-01-21T03:33:42.371Z,14.90
2023-01-21T03:36:22.324Z,15.32
2023-01-21T03:38:52.562Z,15.32
2023-01-21T03:41:27.252Z,14.80
2023-01-21T03:43:53.794Z,13.85
2023-01-21T03:46:50.001Z,15.85
2023-01-21T03:49:29.857Z,13.85
2023-01-21T03:51:59.903Z,13.73
2023-01-21T03:54:33.094Z,14.20
2023-01-21T03:56:59.542Z,13.82
2023-01-21T03:59:25.971Z,13.68
2023-01-21T04:01:52.421Z,13.65
2023-01-21T04:04:19.050Z,14.15
2023-01-21T04:06:45.460Z,13.20
2023-01-21T04:09:12.011Z,14.32
2023-01-21T04:11:38.411Z,12.88
2023-01-21T04:14:04.946Z,13.95
2023-01-21T04:16:31.477Z,14.10
2023-01-21T04:18:57.915Z,14.35
2023-01-21T04:21:37.004Z,14.82
2023-01-21T04:24:03.758Z,14.45
2023-01-21T04:26:30.192Z,13.10
2023-01-21T04:28:56.629Z,14.05
2023-01-21T04:31:23.078Z,15.20
2023-01-21T04:33:49.526Z,14.40
2023-01-21T04:36:15.935Z,14.13
2023-01-21T04:38:42.374Z,14.27
2023-01-21T04:41:08.838Z,14.25
2023-01-21T04:43:35.271Z,13.57
2023-01-21T04:46:02.465Z,13.60
2023-01-21T04:48:38.328Z,14.65
2023-01-21T04:51:06.542Z,13.35
2023-01-21T04:53:33.063Z,13.15
2023-01-21T04:55:59.548Z,14.75
2023-01-21T04:58:27.413Z,13.68
2023-01-21T05:00:55.387Z,13.77
2023-01-21T05:03:21.872Z,13.77
2023-01-21T05:05:48.480Z,14.02
2023-01-21T05:08:14.981Z,13.50
2023-01-21T05:10:41.383Z,13.25
2023-01-21T05:13:07.804Z,13.63
2023-01-21T05:15:40.685Z,13.50
2023-01-21T05:18:07.205Z,13.30
2023-01-21T05:20:33.593Z,13.98
2023-01-21T05:23:00.053Z,14.32
2023-01-21T05:25:26.513Z,14.98
2023-01-21T05:27:54.303Z,13.95
2023-01-21T05:30:21.246Z,14.50
2023-01-21T05:32:51.934Z,15.35
2023-01-21T05:35:20.195Z,16.08
2023-01-21T05:37:47.913Z,15.32
2023-01-21T05:40:16.420Z,15.48
2023-01-21T05:42:45.668Z,15.43
2023-01-21T05:45:12.414Z,16.23
2023-01-21T05:47:39.011Z,15.98
2023-01-21T05:50:06.375Z,16.20
2023-01-21T05:52:32.854Z,15.52
2023-01-21T05:55:02.114Z,15.48
2023-01-21T05:57:30.050Z,14.52
2023-01-21T05:59:56.591Z,13.85
2023-01-21T06:02:23.371Z,14.82
2023-01-21T06:04:49.989Z,13.25
2023-01-21T06:07:16.481Z,14.57
2023-01-21T06:09:43.778Z,14.55
2023-01-21T06:12:10.357Z,16.05
2023-01-21T06:14:36.902Z,15.10
2023-01-21T06:17:04.146Z,14.27
2023-01-21T06:19:30.565Z,13.80
2023-01-21T06:21:57.776Z,14.77
2023-01-21T06:24:24.217Z,14.38
2023-01-21T06:26:50.684Z,16.48
2023-01-21T06:29:17.171Z,16.80
2023-01-21T06:31:43.860Z,15.93
2023-01-21T06:34:12.681Z,16.85
2023-01-21T06:36:42.581Z,14.52
2023-01-21T06:39:10.621Z,15.45
2023-01-21T06:41:37.072Z,16.52
2023-01-21T06:44:04.577Z,15.38
2023-01-21T06:46:31.067Z,14.25
2023-01-21T06:48:59.288Z,15.25
2023-01-21T06:51:26.023Z,17.83
2023-01-21T06:53:52.733Z,17.98
2023-01-21T06:56:19.422Z,17.33
2023-01-21T06:58:46.113Z,15.77
2023-01-21T07:01:13.148Z,16.30
2023-01-21T07:03:39.736Z,16.55
2023-01-21T07:06:06.588Z,15.63
2023-01-21T07:08:33.009Z,16.83
2023-01-21T07:10:59.511Z,16.08
2023-01-21T07:13:29.478Z,16.48
2023-01-21T07:16:04.031Z,16.45
2023-01-21T07:18:31.737Z,16.00
2023-01-21T07:20:58.232Z,16.05
2023-01-21T07:23:25.147Z,15.52
2023-01-21T07:25:51.683Z,16.73
2023-01-21T07:28:18.339Z,15.85
2023-01-21T07:30:45.379Z,15.65
2023-01-21T07:33:11.859Z,15.93
2023-01-21T07:35:38.318Z,16.00
2023-01-21T07:38:04.910Z,15.48
2023-01-21T07:40:31.502Z,17.80
2023-01-21T07:42:57.985Z,15.52
2023-01-21T07:45:24.766Z,15.93
2023-01-21T07:47:51.267Z,15.73
2023-01-21T07:50:17.722Z,19.48
2023-01-21T07:52:44.152Z,16.63
2023-01-21T07:55:12.774Z,16.30
2023-01-21T07:57:39.540Z,16.35
2023-01-21T08:00:07.044Z,17.48
2023-01-21T08:02:33.716Z,16.92
2023-01-21T08:05:00.195Z,15.80
2023-01-21T08:07:26.629Z,17.35
2023-01-21T08:09:53.112Z,18.98
2023-01-21T08:12:19.565Z,17.13
2023-01-21T08:14:45.960Z,17.35
2023-01-21T08:17:12.431Z,16.55
2023-01-21T08:19:38.837Z,17.40
2023-01-21T08:22:05.664Z,14.20
2023-01-21T08:24:32.202Z,14.35
2023-01-21T08:27:00.041Z,15.15
2023-01-21T08:29:27.389Z,15.00
2023-01-21T08:31:54.019Z,15.25
2023-01-21T08:34:23.867Z,13.52
2023-01-21T08:36:50.400Z,15.18
2023-01-21T08:39:16.840Z,14.07
2023-01-21T08:41:44.273Z,14.80
2023-01-21T08:44:10.691Z,15.88
2023-01-21T08:46:37.163Z,14.25
2023-01-21T08:49:03.855Z,16.08
2023-01-21T08:51:30.268Z,14.45
2023-01-21T08:53:56.737Z,15.30
2023-01-21T08:56:23.290Z,15.27
2023-01-21T08:58:55.214Z,14.93
2023-01-21T09:01:21.899Z,15.82
2023-01-21T09:03:48.495Z,14.57
2023-01-21T09:06:15.397Z,13.82
2023-01-21T09:08:42.166Z,14.15
2023-01-21T09:11:10.092Z,15.15
2023-01-21T09:13:38.645Z,14.80
2023-01-21T09:16:14.340Z,13.90
2023-01-21T09:18:41.490Z,14.05
2023-01-21T09:21:08.234Z,15.00
2023-01-21T09:23:36.397Z,14.20
2023-01-21T09:26:20.789Z,15.18
2023-01-21T09:28:53.069Z,15.45
2023-01-21T09:31:26.948Z,19.50
2023-01-21T09:33:56.905Z,19.60
2023-01-21T09:36:26.179Z,15.10
2023-01-21T09:38:52.723Z,14.43
2023-01-21T09:41:30.344Z,13.95
2023-01-21T09:44:14.857Z,14.15
2023-01-21T09:47:04.882Z,16.88
2023-01-21T09:49:34.666Z,14.38
2023-01-21T09:52:39.314Z,13.05
2023-01-21T09:55:13.979Z,13.43
2023-01-21T09:58:08.319Z,12.88
2023-01-21T10:00:55.090Z,13.48
2023-01-21T10:03:38.451Z,13.50
2023-01-21T10:06:26.946Z,12.18
2023-01-21T10:09:32.353Z,13.38
2023-01-21T10:12:28.191Z,12.68
2023-01-21T10:15:33.231Z,12.80
2023-01-21T10:18:07.377Z,11.52
2023-01-21T10:20:45.756Z,11.75
2023-01-21T10:23:22.532Z,11.40
2023-01-21T10:25:50.386Z,11.85
2023-01-21T10:28:22.791Z,11.73
2023-01-21T10:30:55.017Z,16.77
2023-01-21T10:33:26.599Z,12.30
2023-01-21T10:36:02.059Z,12.23
2023-01-21T10:38:41.375Z,11.70
2023-01-21T10:41:37.535Z,12.93
2023-01-21T10:44:30.025Z,12.73
2023-01-21T10:47:18.632Z,13.05
2023-01-21T10:50:14.637Z,11.35
2023-01-21T10:52:51.637Z,11.52
2023-01-21T10:55:41.190Z,12.23
2023-01-21T10:58:30.532Z,11.15
2023-01-21T11:01:02.099Z,11.65
2023-01-21T11:03:41.224Z,12.65
2023-01-21T11:06:12.139Z,11.52
2023-01-21T11:08:39.758Z,12.00
2023-01-21T11:11:08.493Z,11.30
2023-01-21T11:13:36.410Z,10.45
2023-01-21T11:16:04.448Z,11.48
2023-01-21T11:18:33.141Z,10.73
2023-01-21T11:21:03.571Z,11.32
2023-01-21T11:23:35.222Z,11.93
2023-01-21T11:26:19.143Z,11.15
2023-01-21T11:31:14.263Z,10.15
2023-01-21T11:33:43.027Z,9.95
2023-01-21T11:36:14.419Z,9.73
2023-01-21T11:38:42.333Z,9.60
2023-01-21T11:41:11.792Z,10.38
2023-01-21T11:43:49.922Z,10.00
2023-01-21T11:46:26.847Z,9.77
2023-01-21T11:49:08.423Z,9.32
2023-01-21T11:51:36.132Z,9.45
2023-01-21T11:54:13.278Z,10.38
2023-01-21T11:56:43.282Z,10.18
2023-01-21T11:59:21.674Z,10.13
2023-01-21T12:02:19.557Z,10.60
2023-01-21T12:05:12.552Z,10.10
2023-01-21T12:07:41.869Z,9.10
2023-01-21T12:10:30.514Z,10.60
2023-01-21T12:13:14.896Z,10.77
2023-01-21T12:15:53.259Z,11.10
2023-01-21T12:19:03.134Z,10.52
2023-01-21T12:21:42.703Z,10.73
2023-01-21T12:24:39.873Z,10.90
2023-01-21T12:27:28.573Z,12.73
2023-01-21T12:30:15.143Z,10.48
2023-01-21T12:32:56.716Z,8.90
2023-01-21T12:35:47.654Z,8.88
2023-01-21T12:38:21.229Z,8.15
2023-01-21T12:43:34.590Z,9.35
2023-01-21T12:46:10.812Z,11.10
2023-01-21T12:48:48.896Z,9.23
2023-01-21T12:53:50.932Z,8.55
2023-01-21T12:59:14.244Z,8.02
2023-01-21T13:02:08.768Z,8.70
2023-01-21T13:04:53.512Z,7.82
2023-01-21T13:07:30.076Z,8.13
2023-01-21T13:10:19.598Z,7.38
2023-01-21T13:13:03.174Z,7.80
2023-01-21T13:15:36.598Z,8.02
2023-01-21T13:18:13.008Z,7.50
2023-01-21T13:20:47.662Z,8.57
2023-01-21T13:23:26.914Z,7.72
2023-01-21T13:26:23.001Z,7.88
2023-01-21T13:29:14.190Z,8.30
2023-01-21T13:31:48.453Z,8.60
2023-01-21T13:34:52.648Z,8.15
2023-01-21T13:37:29.718Z,8.70
2023-01-21T13:40:39.440Z,8.68
2023-01-21T13:43:54.885Z,7.47
2023-01-21T13:46:39.642Z,7.80
2023-01-21T13:49:19.986Z,8.00
2023-01-21T13:51:59.356Z,8.80
2023-01-21T13:55:00.351Z,7.60
2023-01-21T13:57:38.793Z,8.68
2023-01-21T14:00:34.662Z,8.02
2023-01-21T14:03:01.221Z,7.25
2023-01-21T14:05:39.855Z,7.40
2023-01-21T14:08:32.212Z,8.43
2023-01-21T14:11:12.527Z,8.25
2023-01-21T14:14:19.454Z,8.73
2023-01-21T14:17:19.423Z,8.48
2023-01-21T14:20:05.438Z,8.25
2023-01-21T14:22:42.124Z,7.72
2023-01-21T14:28:21.937Z,7.97
2023-01-21T14:31:02.442Z,7.78
2023-01-21T14:33:48.328Z,7.68
2023-01-21T14:36:23.952Z,7.63
2023-01-21T14:39:04.239Z,10.40
2023-01-21T14:42:04.825Z,7.78
2023-01-21T14:44:40.416Z,7.40
2023-01-21T14:47:14.777Z,8.30
2023-01-21T14:49:48.303Z,7.38
2023-01-21T14:52:19.057Z,8.75
2023-01-21T14:54:46.837Z,8.57
2023-01-21T14:57:49.682Z,9.07
2023-01-21T15:00:18.806Z,8.90
2023-01-21T15:02:47.986Z,7.93
2023-01-21T15:05:27.869Z,7.53
2023-01-21T15:08:06.363Z,9.18
2023-01-21T15:10:40.378Z,9.25
2023-01-21T15:13:26.785Z,11.50
2023-01-21T15:16:31.196Z,15.25
2023-01-21T15:21:42.400Z,23.67
2023-01-21T15:24:37.312Z,16.73
2023-01-21T15:27:20.019Z,12.52
2023-01-21T15:30:19.029Z,10.73
2023-01-21T15:32:49.234Z,18.58
2023-01-21T15:35:32.401Z,9.82
2023-01-21T15:38:03.692Z,11.30
2023-01-21T15:40:41.268Z,9.45
2023-01-21T15:43:20.555Z,8.65
2023-01-21T15:46:27.043Z,9.00
2023-01-21T15:49:20.939Z,8.48
2023-01-21T15:52:08.986Z,8.23
2023-01-21T15:54:50.268Z,8.88
2023-01-21T15:57:29.642Z,8.90
2023-01-21T16:00:10.829Z,8.48
2023-01-21T16:02:58.056Z,8.48
2023-01-21T16:05:36.553Z,7.60
2023-01-21T16:08:17.021Z,7.97
2023-01-21T16:11:06.927Z,7.95
2023-01-21T16:13:33.914Z,15.07
2023-01-21T16:16:34.377Z,9.75
2023-01-21T16:19:12.196Z,8.82
2023-01-21T16:21:42.850Z,7.82
2023-01-21T16:24:17.265Z,10.13
2023-01-21T16:26:44.227Z,9.75
2023-01-21T16:29:15.529Z,9.20
2023-01-21T16:32:00.108Z,10.18
2023-01-21T16:34:41.309Z,9.75
2023-01-21T16:37:14.094Z,10.00
2023-01-21T16:39:43.014Z,9.32
2023-01-21T16:42:38.247Z,10.07
2023-01-21T16:45:27.374Z,10.05
2023-01-21T16:47:59.442Z,9.60
2023-01-21T16:50:28.783Z,9.60
2023-01-21T16:52:57.439Z,10.18
2023-01-21T16:55:26.738Z,10.10
2023-01-21T16:57:56.015Z,10.63
2023-01-21T17:00:25.974Z,10.02
2023-01-21T17:02:52.856Z,11.45
2023-01-21T17:05:20.273Z,11.82
2023-01-21T17:07:56.000Z,10.43
2023-01-21T17:10:27.648Z,11.15
2023-01-21T17:12:59.515Z,10.93
2023-01-21T17:15:38.532Z,11.40
2023-01-21T17:18:09.043Z,11.70
2023-01-21T17:20:42.292Z,10.63
2023-01-21T17:23:19.862Z,10.43
2023-01-21T17:25:53.919Z,10.40
2023-01-21T17:28:31.523Z,11.18
2023-01-21T17:31:17.462Z,10.20
2023-01-21T17:33:44.584Z,9.80
2023-01-21T17:36:16.121Z,10.02
2023-01-21T17:38:45.332Z,10.20
2023-01-21T17:41:26.166Z,10.93
2023-01-21T17:43:58.492Z,11.85
2023-01-21T17:46:25.236Z,17.50
2023-01-21T17:48:55.948Z,11.40
2023-01-21T17:51:26.292Z,11.65
2023-01-21T17:54:00.036Z,11.02
2023-01-21T17:56:51.145Z,11.00
2023-01-21T17:59:42.879Z,10.73
2023-01-21T18:02:11.942Z,9.52
2023-01-21T18:04:39.408Z,11.75
2023-01-21T18:07:21.115Z,10.10
2023-01-21T18:09:47.527Z,10.80
2023-01-21T18:12:14.202Z,9.73
2023-01-21T18:14:41.810Z,10.32
2023-01-21T18:17:18.766Z,11.30
2023-01-21T18:19:45.568Z,9.50
2023-01-21T18:22:30.499Z,10.02
2023-01-21T18:24:56.936Z,10.98
2023-01-21T18:27:25.996Z,10.98
2023-01-21T18:29:53.401Z,11.70
2023-01-21T18:32:19.940Z,10.00
2023-01-21T18:34:46.879Z,10.45
2023-01-21T18:37:14.882Z,10.18
2023-01-21T18:39:41.600Z,10.18
2023-01-21T18:42:16.267Z,10.48
2023-01-21T18:44:43.150Z,10.30
2023-01-21T18:47:12.378Z,10.65
2023-01-21T18:49:38.823Z,11.65
2023-01-21T18:52:06.134Z,11.35
2023-01-21T18:54:33.089Z,9.57
2023-01-21T18:57:01.001Z,10.27
2023-01-21T18:59:27.850Z,10.13
2023-01-21T19:01:54.580Z,10.88
2023-01-21T19:04:21.538Z,9.98
2023-01-21T19:06:50.481Z,9.23
2023-01-21T19:09:22.896Z,8.77
2023-01-21T19:11:49.941Z,10.50
2023-01-21T19:14:16.451Z,9.95
2023-01-21T19:16:44.333Z,9.07
2023-01-21T19:19:16.223Z,11.32
2023-01-21T19:21:43.054Z,11.25
2023-01-21T19:24:11.916Z,9.80
2023-01-21T19:26:38.963Z,9.65
2023-01-21T19:29:07.678Z,9.13
2023-01-21T19:31:34.185Z,9.05
2023-01-21T19:34:00.727Z,7.57
2023-01-21T19:36:27.206Z,8.65
2023-01-21T19:38:56.919Z,9.45
2023-01-21T19:41:23.848Z,8.30
2023-01-21T19:43:50.515Z,9.23
2023-01-21T19:46:18.346Z,10.52
2023-01-21T19:48:45.173Z,9.80
2023-01-21T19:51:11.729Z,9.38
2023-01-21T19:53:38.175Z,8.90
2023-01-21T19:56:05.126Z,8.52
2023-01-21T19:58:32.433Z,8.63
2023-01-21T20:00:58.894Z,7.57
2023-01-21T20:03:26.103Z,9.77
2023-01-21T20:05:57.334Z,8.20
2023-01-21T20:08:27.397Z,7.70
2023-01-21T20:10:53.870Z,8.00
2023-01-21T20:13:20.373Z,8.85
2023-01-21T20:15:49.174Z,8.63
2023-01-21T20:18:25.322Z,9.20
2023-01-21T20:20:52.961Z,8.00
2023-01-21T20:23:21.050Z,9.15
2023-01-21T20:25:56.664Z,8.93
2023-01-21T20:28:33.739Z,7.50
2023-01-21T20:31:03.410Z,8.00
2023-01-21T20:33:29.957Z,8.13
2023-01-21T20:35:57.582Z,7.32
2023-01-21T20:38:30.811Z,6.35
2023-01-21T20:40:58.524Z,7.88
2023-01-21T20:43:25.019Z,7.55
2023-01-21T20:45:52.141Z,6.53
2023-01-21T20:48:25.338Z,7.25
2023-01-21T20:50:52.131Z,7.00
2023-01-21T20:53:19.031Z,6.47
2023-01-21T20:55:48.330Z,6.75
2023-01-21T20:58:16.656Z,7.60
2023-01-21T21:00:45.359Z,6.60
2023-01-21T21:03:13.973Z,6.80
2023-01-21T21:05:40.641Z,6.95
2023-01-21T21:08:10.166Z,6.13
2023-01-21T21:10:36.580Z,6.00
2023-01-21T21:13:04.010Z,6.10
2023-01-21T21:15:33.544Z,5.20
2023-01-21T21:18:00.685Z,5.40
2023-01-21T21:20:33.110Z,5.60
2023-01-21T21:22:59.916Z,6.03
2023-01-21T21:25:28.507Z,4.88
2023-01-21T21:27:55.819Z,5.72
2023-01-21T21:30:26.256Z,4.97
2023-01-21T21:32:53.318Z,4.68
2023-01-21T21:35:28.046Z,6.15
2023-01-21T21:37:56.705Z,4.60
2023-01-21T21:40:25.464Z,4.32
2023-01-21T21:43:11.074Z,4.32
2023-01-21T21:45:41.184Z,4.13
2023-01-21T21:48:39.212Z,4.05
2023-01-21T21:51:07.167Z,3.95
2023-01-21T21:53:33.782Z,4.03
2023-01-21T21:56:02.838Z,4.10
2023-01-21T21:58:29.318Z,4.28
2023-01-21T22:00:55.915Z,4.05
2023-01-21T22:03:22.414Z,6.80
2023-01-21T22:05:53.739Z,3.78
2023-01-21T22:08:20.206Z,3.38
2023-01-21T22:10:55.956Z,4.63
2023-01-21T22:13:22.373Z,5.20
2023-01-21T22:16:00.647Z,3.60
2023-01-21T22:18:29.348Z,2.90
2023-01-21T22:21:06.841Z,2.83
2023-01-21T22:23:35.414Z,4.13
2023-01-21T22:26:02.744Z,3.47
2023-01-21T22:28:29.432Z,2.92
2023-01-21T22:31:02.426Z,3.05
2023-01-21T22:33:28.963Z,3.33
2023-01-21T22:35:55.379Z,2.50
2023-01-21T22:38:21.885Z,2.97
2023-01-21T22:40:55.164Z,2.72
2023-01-21T22:43:21.995Z,2.30
2023-01-21T22:45:50.167Z,2.45
2023-01-21T22:48:18.450Z,2.80
2023-01-21T22:50:51.115Z,2.55
2023-01-21T22:53:17.722Z,2.58
2023-01-21T22:55:44.109Z,2.22
2023-01-21T22:58:10.563Z,2.05
2023-01-21T23:00:39.652Z,3.00
2023-01-21T23:03:07.822Z,2.55
2023-01-21T23:05:35.359Z,2.50
2023-01-21T23:08:02.040Z,2.50
2023-01-21T23:10:28.505Z,2.22
2023-01-21T23:12:55.015Z,2.20
2023-01-21T23:15:22.634Z,2.30
2023-01-21T23:17:49.656Z,2.30
2023-01-21T23:20:16.872Z,2.40
2023-01-21T23:22:43.549Z,2.38
2023-01-21T23:25:12.740Z,2.17
2023-01-21T23:27:39.356Z,2.40
2023-01-21T23:30:07.171Z,2.45
2023-01-21T23:32:33.769Z,2.78
2023-01-21T23:35:00.188Z,2.35
2023-01-21T23:37:26.652Z,2.90
2023-01-21T23:39:53.141Z,1.95
2023-01-21T23:42:19.726Z,2.20
2023-01-21T23:44:46.224Z,1.85
2023-01-21T23:47:12.688Z,1.92
2023-01-21T23:49:39.212Z,2.15
2023-01-21T23:52:08.228Z,2.08
2023-01-21T23:54:34.662Z,2.55
2023-01-21T23:57:01.066Z,1.83
2023-01-21T23:59:27.627Z,2.28
